TAF and METAR

METAR for El Alto International Airport

SLLP 232300Z 30006KT 9999 NSC 08/M08 Q1035
Report created 24. jun 01:00
wind 6 knots from WNW (300°) visibility > 10km No significant clouds. Temperature 8° with dewpoint at -8° (Humidity 31.23%) Pressure 1035 hPa

TAF for El Alto International Airport

TAF SLLP 232250Z 2400/2424 05005KT 9999 NSC TX15/2420Z TNM04/2410Z TEMPO 2404/2408 4000 FU BECMG 2412/2416 30010KT FEW017
Report created 24. jun 00:50

between 24. jun 02:00 - 24. jun 02:00

wind 5 knots from NE (050°) visibility > 10km No significant clouds. Max temperature 15° expected today at around 22 o'clock Min temperature -04° expected today at around 12 o'clock

temporarily between 24. jun 06:00 - 24. jun 10:00

visibility 4000 meters smoke

becoming between 24. jun 14:00 - 24. jun 18:00

wind 10 knots from WNW (300°) some clouds (~25% cover) at 1700 feet